sensor_id;sensor_type;location;lat;lon;timestamp;pressure;altitude;pressure_sealevel;temperature;humidity
49457;BME280;35352;51.480;-0.862;2022-08-18T21:05:22;100855.42;;;22.70;69.78
49457;BME280;35352;51.480;-0.862;2022-08-18T21:08:00;100860.81;;;23.71;67.19
49457;BME280;35352;51.480;-0.862;2022-08-18T21:11:23;100860.71;;;22.83;71.75
49457;BME280;35352;51.480;-0.862;2022-08-18T21:13:55;100857.67;;;21.96;78.09
49457;BME280;35352;51.480;-0.862;2022-08-18T21:16:33;100851.95;;;21.32;80.14
49457;BME280;35352;51.480;-0.862;2022-08-18T21:19:04;100849.08;;;21.26;84.97
49457;BME280;35352;51.480;-0.862;2022-08-18T21:21:34;100837.31;;;22.25;77.74
49457;BME280;35352;51.480;-0.862;2022-08-18T21:24:05;100840.22;;;22.37;77.01
49457;BME280;35352;51.480;-0.862;2022-08-18T21:26:34;100844.20;;;22.54;76.62
49457;BME280;35352;51.480;-0.862;2022-08-18T21:29:04;100842.78;;;22.99;72.95
49457;BME280;35352;51.480;-0.862;2022-08-18T21:31:34;100837.59;;;20.22;93.24
49457;BME280;35352;51.480;-0.862;2022-08-18T21:34:05;100841.86;;;21.55;86.75
49457;BME280;35352;51.480;-0.862;2022-08-18T21:36:36;100841.71;;;21.54;85.72
49457;BME280;35352;51.480;-0.862;2022-08-18T21:39:08;100839.38;;;22.35;80.75
49457;BME280;35352;51.480;-0.862;2022-08-18T21:43:57;100841.35;;;21.82;81.28
49457;BME280;35352;51.480;-0.862;2022-08-18T21:46:29;100836.33;;;21.33;84.17
49457;BME280;35352;51.480;-0.862;2022-08-18T21:48:58;100842.57;;;18.73;100.00
49457;BME280;35352;51.480;-0.862;2022-08-18T21:51:30;100838.28;;;19.25;100.00
49457;BME280;35352;51.480;-0.862;2022-08-18T21:53:59;100842.34;;;20.44;100.00
49457;BME280;35352;51.480;-0.862;2022-08-18T21:58:39;100841.00;;;21.24;100.00
49457;BME280;35352;51.480;-0.862;2022-08-18T22:01:19;100842.51;;;21.18;100.00
49457;BME280;35352;51.480;-0.862;2022-08-18T22:03:51;100846.03;;;18.66;100.00
49457;BME280;35352;51.480;-0.862;2022-08-18T22:12:34;100842.68;;;20.68;100.00
49457;BME280;35352;51.480;-0.862;2022-08-18T22:15:05;100839.41;;;20.93;100.00
49457;BME280;35352;51.480;-0.862;2022-08-18T22:17:42;100840.25;;;18.80;100.00
49457;BME280;35352;51.480;-0.862;2022-08-18T22:21:32;100830.97;;;20.54;100.00
49457;BME280;35352;51.480;-0.862;2022-08-18T22:27:20;100824.28;;;20.03;100.00
49457;BME280;35352;51.480;-0.862;2022-08-18T22:29:50;100820.19;;;19.39;100.00
49457;BME280;35352;51.480;-0.862;2022-08-18T22:32:18;100818.63;;;19.80;100.00
49457;BME280;35352;51.480;-0.862;2022-08-18T22:34:47;100814.01;;;20.07;100.00
49457;BME280;35352;51.480;-0.862;2022-08-18T22:37:17;100818.28;;;18.86;100.00
49457;BME280;35352;51.480;-0.862;2022-08-18T22:39:49;100812.32;;;20.08;100.00
49457;BME280;35352;51.480;-0.862;2022-08-18T22:42:18;100816.40;;;17.63;100.00
49457;BME280;35352;51.480;-0.862;2022-08-18T22:44:46;100815.57;;;20.34;100.00
49457;BME280;35352;51.480;-0.862;2022-08-18T22:47:15;100818.03;;;20.99;100.00
49457;BME280;35352;51.480;-0.862;2022-08-18T22:49:42;100825.67;;;20.87;100.00
49457;BME280;35352;51.480;-0.862;2022-08-18T22:52:16;100828.16;;;21.21;100.00
49457;BME280;35352;51.480;-0.862;2022-08-18T22:54:45;100830.14;;;20.31;100.00
49457;BME280;35352;51.480;-0.862;2022-08-18T22:57:12;100830.23;;;21.64;100.00
49457;BME280;35352;51.480;-0.862;2022-08-18T22:59:39;100829.38;;;21.08;100.00
49457;BME280;35352;51.480;-0.862;2022-08-18T23:02:07;100829.94;;;20.25;100.00
49457;BME280;35352;51.480;-0.862;2022-08-18T23:04:35;100826.19;;;21.09;100.00
49457;BME280;35352;51.480;-0.862;2022-08-18T23:07:05;100824.03;;;21.66;100.00
49457;BME280;35352;51.480;-0.862;2022-08-18T23:09:32;100819.67;;;21.43;100.00
49457;BME280;35352;51.480;-0.862;2022-08-18T23:12:05;100820.43;;;20.30;100.00
49457;BME280;35352;51.480;-0.862;2022-08-18T23:14:34;100822.24;;;19.64;100.00
49457;BME280;35352;51.480;-0.862;2022-08-18T23:17:03;100823.07;;;21.36;100.00
49457;BME280;35352;51.480;-0.862;2022-08-18T23:19:32;100822.11;;;22.34;100.00
49457;BME280;35352;51.480;-0.862;2022-08-18T23:22:00;100824.42;;;19.39;100.00
49457;BME280;35352;51.480;-0.862;2022-08-18T23:24:29;100829.70;;;18.87;100.00
49457;BME280;35352;51.480;-0.862;2022-08-18T23:26:57;100824.22;;;19.79;100.00
49457;BME280;35352;51.480;-0.862;2022-08-18T23:29:25;100828.78;;;20.00;100.00
49457;BME280;35352;51.480;-0.862;2022-08-18T23:31:53;100831.55;;;19.62;100.00
49457;BME280;35352;51.480;-0.862;2022-08-18T23:34:22;100829.31;;;19.85;100.00
49457;BME280;35352;51.480;-0.862;2022-08-18T23:36:54;100825.62;;;20.29;100.00
49457;BME280;35352;51.480;-0.862;2022-08-18T23:39:21;100822.87;;;20.07;100.00
49457;BME280;35352;51.480;-0.862;2022-08-18T23:41:49;100829.53;;;19.11;100.00
49457;BME280;35352;51.480;-0.862;2022-08-18T23:44:16;100826.82;;;19.71;100.00
49457;BME280;35352;51.480;-0.862;2022-08-18T23:46:44;100821.70;;;20.17;100.00
49457;BME280;35352;51.480;-0.862;2022-08-18T23:49:12;100824.18;;;21.16;100.00
49457;BME280;35352;51.480;-0.862;2022-08-18T23:51:42;100824.81;;;19.66;100.00
49457;BME280;35352;51.480;-0.862;2022-08-18T23:54:11;100833.79;;;19.17;100.00
49457;BME280;35352;51.480;-0.862;2022-08-18T23:56:39;100837.57;;;18.50;100.00
49457;BME280;35352;51.480;-0.862;2022-08-18T23:59:07;100831.51;;;19.78;100.00
